Terminal Aerodrome Forecast
Issued by NWS Charleston, WV

Current Version | Previous Version | Graphics & Text | Print | Product List | Glossary On
Versions: 1 2 3 4 5 6 7 8 9 10 11 12 13 14 15 16 17 18 19 20 21 22 23 24 25 26 27 28
000
FTUS41 KRLX 012320
TAFHTS
TAF
KHTS 012320Z 0200/0224 32004KT 6SM BR OVC011
      TEMPO 0200/0202 4SM BR
     FM020200 34004KT 6SM BR OVC008
     FM021400 00000KT 5SM BR OVC003
     FM021600 00000KT 5SM BR BKN008
     FM021700 00000KT 6SM BR BKN015
     FM021900 00000KT P6SM BKN020
     FM022100 VRB03KT P6SM BKN060=

USA.gov is the U.S. government's official web portal to all federal, state and local government web resources and services.